Startpagina
METAR-TAF:

METAR-TAF

Vliegvelden :

Luchthaven Libreville Internationaal

Libreville, Gabon

breedte: 00-27N, lengte: 009-25E, hoogte: 12 m

Actueel weer

Dit bericht is 29 minuten geleden gemaakt, om 16:30 UTC
Wind 8 kt uit het zuidwesten, variërend tussen het zuiden en het westen
Temperatuur 26°C
Vochtigheid 84%
Druk 1013 hPa
Zicht 10 km of meer
Verspreide wolken op 1300 ft

METAR: FOOL 151630Z 22008KT 190V260 9999 SCT013 26/23 Q1013 NOSIG

Tijdstip: 17:59 (16:59 UTC)

Verwachting

Dit bericht is 5 uur en het 59 minuten geleden gemaakt, om 11:00 UTC
Verwachting geldig van 15 om 12 UTC tot 16 om 18 UTC
Wind 10 kt uit het zuidzuidoosten
Zicht 10 km of meer
Weinig wolken op 1200 ft
Gebroken wolken op 4000 ft
Kans 30% :
Tijdelijke
van 16 om 03 UTC tot 16 om 07 UTC
Zicht: 4000 m
Gebroken wolken op 800 ft
Geheel bewolkt op 2600 ft
motregen

TAF: FOOL 151100Z 1512/1618 16010KT 9999 FEW012 BKN040 PROB30 TEMPO 1603/1607 4000 DZ BKN008 OVC026

Waarnemingen en weersverwachtingen van meer dan 4000 vliegvelden (METAR en TAF).

De beschikbare stations zijn de gele en rode punten op de kaart.

Ga met uw muis naar het station om de naam te zien.

Klik dan om waarnemingen en weersverwachtingen te zien.

kaart wijzigen: klik op de groene knoppen met een zwart kruis om in te zoomen, op de groene knop met een streepje om uit te zoomen of op de groene pijlen voor aangrenzende kaarten.


METAR-TAF: